Platina, California
Current Conditions -  °F | °C
As of 2:55 AM on Wednesday 26 Nov 2014 (Local Time) from KO54 Reporting Station
NA  
Wind Chill: 39°   Ceiling: NA
Heat Index: 39°   Visibility: 0.5mi
Dew Point: 39°   Wind: 0mph
Humidity: 100%   Direction: NA
Pressure: 30.4"   Gusts: NA
Location:  40.36°N, 122.9°W
Report Text: KO54 261055Z AUTO 00000KT 1/2SM 04/04 A3040 RMK AO1
Loading
Personal Weather Stations






























Interactive Weather Map New forecast layout! Learn more

10-Day Weather Forecast

Advertisements
Track Severe Weather on mobile